createdAt,value
2023-04-04T00:00:57.051Z,62.8
2023-04-04T00:01:57.001Z,62.9
2023-04-04T00:02:57.183Z,63.0
2023-04-04T00:03:57.224Z,62.9
2023-04-04T00:04:56.996Z,63.0
2023-04-04T00:05:57.040Z,62.9
2023-04-04T00:06:57.066Z,63.0
2023-04-04T00:07:57.021Z,62.9
2023-04-04T00:08:57.014Z,63.2
2023-04-04T00:09:57.082Z,63.0
2023-04-04T00:10:57.254Z,63.0
2023-04-04T00:11:57.101Z,63.1
2023-04-04T00:12:57.035Z,63.1
2023-04-04T00:13:57.019Z,63.0
2023-04-04T00:14:57.022Z,63.0
2023-04-04T00:15:57.066Z,63.1
2023-04-04T00:16:57.027Z,63.1
2023-04-04T00:17:57.069Z,63.1
2023-04-04T00:18:57.012Z,63.2
2023-04-04T00:19:56.994Z,63.3
2023-04-04T00:20:57.007Z,63.3
2023-04-04T00:21:57.160Z,63.2
2023-04-04T00:22:56.981Z,63.2
2023-04-04T00:23:57.019Z,63.3
2023-04-04T00:24:56.996Z,63.3
2023-04-04T00:25:56.980Z,63.4
2023-04-04T00:26:56.992Z,63.3
2023-04-04T00:27:56.968Z,63.3
2023-04-04T00:28:56.982Z,63.3
2023-04-04T00:29:56.992Z,63.3
2023-04-04T00:30:56.993Z,63.3
2023-04-04T00:31:57.015Z,63.4
2023-04-04T00:32:57.350Z,63.4
2023-04-04T00:33:57.010Z,63.7
2023-04-04T00:34:56.994Z,63.5
2023-04-04T00:35:57.080Z,63.4
2023-04-04T00:36:57.017Z,63.5
2023-04-04T00:37:56.949Z,63.5
2023-04-04T00:38:56.974Z,63.5
2023-04-04T00:39:56.946Z,63.6
2023-04-04T00:40:57.080Z,63.7
2023-04-04T00:41:57.015Z,63.8
2023-04-04T00:42:57.128Z,63.6
2023-04-04T00:43:56.957Z,63.7
2023-04-04T00:44:56.981Z,63.7
2023-04-04T00:45:56.995Z,63.8
2023-04-04T00:46:57.011Z,63.9
2023-04-04T00:47:57.037Z,64.1
2023-04-04T00:48:57.006Z,64.3
2023-04-04T00:49:56.935Z,64.0
2023-04-04T00:50:56.915Z,64.0
2023-04-04T00:51:56.992Z,64.1
2023-04-04T00:52:56.949Z,64.1
2023-04-04T00:53:57.010Z,64.3
2023-04-04T00:54:57.138Z,64.1
2023-04-04T00:55:56.929Z,64.0
2023-04-04T00:56:56.960Z,64.1
2023-04-04T00:57:56.922Z,64.1
2023-04-04T00:58:57.074Z,64.1
2023-04-04T00:59:56.930Z,64.0
2023-04-04T01:00:56.966Z,64.1
2023-04-04T01:01:57.054Z,64.2
2023-04-04T01:02:56.937Z,64.1
2023-04-04T01:03:56.976Z,64.1
2023-04-04T01:04:56.893Z,64.2
2023-04-04T01:06:01.421Z,64.5
2023-04-04T01:06:56.916Z,64.4
2023-04-04T01:07:56.933Z,64.5
2023-04-04T01:08:56.919Z,64.5
2023-04-04T01:09:56.951Z,64.5
2023-04-04T01:10:56.921Z,64.5
2023-04-04T01:11:56.910Z,64.8
2023-04-04T01:12:56.907Z,64.6
2023-04-04T01:13:56.915Z,64.5
2023-04-04T01:14:56.867Z,64.6
2023-04-04T01:15:56.902Z,64.6
2023-04-04T01:16:56.974Z,64.6
2023-04-04T01:17:57.041Z,64.6
2023-04-04T01:18:56.902Z,64.5
2023-04-04T01:19:56.941Z,64.7
2023-04-04T01:20:56.919Z,64.6
2023-04-04T01:21:56.881Z,64.5
2023-04-04T01:22:56.896Z,64.9
2023-04-04T01:23:56.845Z,64.6
2023-04-04T01:24:56.950Z,65.0
2023-04-04T01:25:56.893Z,64.8
2023-04-04T01:26:57.085Z,64.7
2023-04-04T01:27:56.858Z,64.7
2023-04-04T01:28:56.843Z,64.8
2023-04-04T01:29:56.866Z,64.7
2023-04-04T01:30:56.901Z,64.8
2023-04-04T01:31:56.888Z,65.0
2023-04-04T01:32:56.897Z,65.7
2023-04-04T01:33:56.849Z,65.1
2023-04-04T01:34:56.851Z,65.1
2023-04-04T01:35:56.921Z,65.1
2023-04-04T01:36:56.856Z,65.2
2023-04-04T01:37:57.024Z,65.2
2023-04-04T01:38:56.829Z,65.3
2023-04-04T01:39:56.904Z,65.1
2023-04-04T01:40:56.878Z,65.2
2023-04-04T01:41:56.844Z,65.1
2023-04-04T01:42:56.822Z,65.1
2023-04-04T01:43:56.847Z,65.2
2023-04-04T01:44:56.872Z,65.2
2023-04-04T01:45:56.888Z,65.2
2023-04-04T01:46:56.872Z,65.2
2023-04-04T01:47:56.861Z,65.3
2023-04-04T01:48:56.989Z,65.3
2023-04-04T01:49:56.897Z,65.2
2023-04-04T01:50:56.967Z,65.3
2023-04-04T01:51:56.844Z,65.4
2023-04-04T01:52:56.837Z,65.3
2023-04-04T01:53:56.830Z,65.3
2023-04-04T01:54:56.807Z,66.0
2023-04-04T01:55:56.829Z,65.4
2023-04-04T01:56:56.827Z,65.4
2023-04-04T01:57:56.801Z,65.4
2023-04-04T01:58:56.874Z,65.5
2023-04-04T01:59:57.162Z,65.5
2023-04-04T02:00:56.811Z,65.4
2023-04-04T02:01:56.831Z,65.4
2023-04-04T02:02:56.870Z,65.6
2023-04-04T02:03:56.828Z,65.4
2023-04-04T02:04:56.778Z,65.4
2023-04-04T02:05:56.806Z,65.6
2023-04-04T02:06:56.819Z,65.5
2023-04-04T02:07:56.786Z,65.5
2023-04-04T02:08:56.941Z,65.5
2023-04-04T02:09:56.796Z,65.4
2023-04-04T02:10:57.213Z,65.6
2023-04-04T02:11:56.958Z,65.7
2023-04-04T02:12:56.854Z,65.6
2023-04-04T02:13:56.818Z,65.8
2023-04-04T02:14:56.786Z,65.9
2023-04-04T02:15:56.813Z,66.0
2023-04-04T02:16:56.779Z,65.8
2023-04-04T02:17:56.833Z,65.8
2023-04-04T02:18:56.772Z,65.8
2023-04-04T02:19:56.756Z,65.7
2023-04-04T02:20:56.813Z,66.1
2023-04-04T02:21:56.764Z,66.1
2023-04-04T02:22:56.989Z,65.9
2023-04-04T02:23:56.796Z,65.9
2023-04-04T02:24:56.750Z,65.9
2023-04-04T02:25:56.765Z,65.9
2023-04-04T02:26:56.753Z,66.0
2023-04-04T02:27:56.773Z,66.1
2023-04-04T02:28:56.741Z,65.9
2023-04-04T02:29:56.774Z,65.9
2023-04-04T02:30:57.161Z,65.9
2023-04-04T02:31:56.735Z,66.0
2023-04-04T02:32:56.832Z,66.0
2023-04-04T02:33:56.897Z,65.9
2023-04-04T02:34:56.747Z,66.1
2023-04-04T02:35:56.863Z,66.0
2023-04-04T02:36:56.744Z,66.0
2023-04-04T02:37:56.845Z,66.0
2023-04-04T02:38:56.758Z,66.1
2023-04-04T02:39:56.718Z,66.1
2023-04-04T02:40:56.737Z,66.0
2023-04-04T02:41:56.845Z,66.1
2023-04-04T02:42:56.740Z,66.0
2023-04-04T02:43:56.701Z,66.0
2023-04-04T02:44:56.850Z,66.2
2023-04-04T02:45:56.785Z,66.1
2023-04-04T02:46:56.826Z,66.3
2023-04-04T02:47:56.985Z,66.1
2023-04-04T02:48:56.778Z,66.2
2023-04-04T02:49:56.731Z,66.2
2023-04-04T02:50:56.837Z,66.5
2023-04-04T02:51:56.768Z,66.5
2023-04-04T02:52:56.734Z,66.4
2023-04-04T02:53:56.873Z,66.4
2023-04-04T02:54:56.705Z,66.3
2023-04-04T02:55:56.888Z,66.4
2023-04-04T02:56:56.700Z,66.3
2023-04-04T02:57:56.710Z,66.8
2023-04-04T02:58:56.797Z,66.9
2023-04-04T02:59:56.665Z,66.5
2023-04-04T03:00:56.692Z,66.5
2023-04-04T03:01:56.841Z,66.4
2023-04-04T03:02:56.824Z,66.7
2023-04-04T03:03:56.866Z,66.5
2023-04-04T03:04:56.741Z,66.5
2023-04-04T03:05:56.715Z,66.4
2023-04-04T03:06:56.925Z,66.4
2023-04-04T03:07:56.812Z,66.4
2023-04-04T03:08:56.698Z,66.5
2023-04-04T03:09:56.692Z,66.6
2023-04-04T03:10:56.708Z,66.5
2023-04-04T03:11:56.670Z,66.5
2023-04-04T03:12:56.749Z,66.4
2023-04-04T03:13:56.790Z,66.5
2023-04-04T03:14:56.654Z,66.5
2023-04-04T03:15:56.678Z,66.5
2023-04-04T03:16:56.711Z,66.5
2023-04-04T03:17:56.955Z,66.6
2023-04-04T03:18:56.656Z,66.6
2023-04-04T03:19:56.669Z,66.5
2023-04-04T03:20:56.708Z,66.6
2023-04-04T03:21:56.646Z,66.5
2023-04-04T03:22:56.736Z,66.6
2023-04-04T03:23:56.655Z,66.7
2023-04-04T03:24:56.789Z,66.7
2023-04-04T03:25:56.666Z,66.7
2023-04-04T03:26:56.675Z,66.8
2023-04-04T03:27:56.671Z,66.7
2023-04-04T03:28:56.848Z,66.7
2023-04-04T03:29:56.693Z,66.7
2023-04-04T03:30:56.683Z,66.7
2023-04-04T03:31:56.713Z,66.8
2023-04-04T03:32:56.764Z,66.7
2023-04-04T03:33:56.629Z,67.3
2023-04-04T03:34:56.651Z,66.9
2023-04-04T03:35:56.785Z,66.9
2023-04-04T03:36:56.616Z,66.9
2023-04-04T03:37:56.641Z,66.8
2023-04-04T03:38:56.727Z,66.8
2023-04-04T03:39:56.735Z,66.8
2023-04-04T03:40:56.665Z,66.9
2023-04-04T03:41:56.640Z,67.1
2023-04-04T03:42:56.607Z,67.0
2023-04-04T03:43:56.612Z,67.0
2023-04-04T03:44:56.637Z,67.0
2023-04-04T03:45:56.700Z,67.0
2023-04-04T03:46:56.636Z,67.1
2023-04-04T03:47:56.655Z,67.1
2023-04-04T03:48:58.049Z,67.3
2023-04-04T03:49:56.732Z,67.3
2023-04-04T03:50:56.756Z,67.5
2023-04-04T03:51:56.650Z,67.4
2023-04-04T03:52:56.584Z,67.4
2023-04-04T03:53:56.636Z,67.3
2023-04-04T03:54:56.584Z,67.5
2023-04-04T03:55:56.619Z,67.3
2023-04-04T03:56:56.614Z,67.4
2023-04-04T03:57:56.579Z,67.5
2023-04-04T03:58:56.750Z,67.6
2023-04-04T03:59:56.608Z,67.4
2023-04-04T04:00:56.592Z,67.3
2023-04-04T04:01:56.550Z,67.3
2023-04-04T04:02:56.671Z,67.4
2023-04-04T04:03:56.665Z,67.3
2023-04-04T04:04:56.575Z,67.5
2023-04-04T04:05:56.637Z,67.4
2023-04-04T04:06:56.603Z,67.5
2023-04-04T04:07:56.623Z,67.4
2023-04-04T04:08:56.590Z,67.4
2023-04-04T04:09:56.930Z,67.8
2023-04-04T04:10:56.649Z,67.6
2023-04-04T04:11:56.619Z,67.5
2023-04-04T04:12:56.629Z,67.5
2023-04-04T04:13:56.555Z,67.5
2023-04-04T04:14:56.586Z,67.4
2023-04-04T04:15:56.762Z,67.7
2023-04-04T04:16:56.597Z,67.5
2023-04-04T04:17:56.579Z,67.5
2023-04-04T04:18:56.591Z,67.5
2023-04-04T04:19:56.564Z,67.7
2023-04-04T04:20:56.590Z,67.7
2023-04-04T04:21:56.559Z,67.6
2023-04-04T04:22:56.566Z,67.6
2023-04-04T04:23:56.737Z,67.5
2023-04-04T04:24:56.545Z,67.5
2023-04-04T04:25:56.599Z,67.7
2023-04-04T04:26:56.551Z,67.8
2023-04-04T04:27:56.538Z,67.8
2023-04-04T04:28:56.506Z,67.7
2023-04-04T04:29:56.602Z,67.7
2023-04-04T04:30:56.631Z,67.7
2023-04-04T04:31:56.567Z,67.6
2023-04-04T04:32:56.571Z,67.8
2023-04-04T04:33:56.511Z,67.8
2023-04-04T04:34:56.674Z,67.9
2023-04-04T04:35:56.636Z,67.9
2023-04-04T04:36:56.508Z,67.7
2023-04-04T04:37:56.502Z,67.7
2023-04-04T04:38:56.580Z,67.7
2023-04-04T04:39:56.536Z,67.8
2023-04-04T04:40:56.616Z,67.8
2023-04-04T04:41:56.711Z,67.9
2023-04-04T04:42:56.544Z,68.1
2023-04-04T04:43:56.523Z,68.0
2023-04-04T04:44:56.521Z,67.9
2023-04-04T04:45:56.525Z,67.8
2023-04-04T04:46:56.533Z,67.9
2023-04-04T04:47:56.596Z,67.9
2023-04-04T04:48:56.525Z,67.9
2023-04-04T04:49:56.531Z,68.0
2023-04-04T04:50:56.571Z,68.0
2023-04-04T04:51:56.538Z,67.9
2023-04-04T04:52:56.509Z,67.9
2023-04-04T04:53:56.562Z,68.2
2023-04-04T04:54:56.517Z,68.1
2023-04-04T04:55:56.567Z,67.9
2023-04-04T04:56:56.629Z,68.0
2023-04-04T04:57:56.498Z,67.9
2023-04-04T04:58:56.582Z,68.0
2023-04-04T04:59:56.482Z,68.4
2023-04-04T05:00:56.585Z,68.1
2023-04-04T05:01:56.465Z,68.0
2023-04-04T05:02:56.669Z,68.2
2023-04-04T05:03:56.471Z,68.0
2023-04-04T05:04:56.505Z,68.0
2023-04-04T05:05:56.619Z,68.0
2023-04-04T05:06:56.633Z,68.6
2023-04-04T05:07:56.613Z,68.2
2023-04-04T05:08:56.523Z,68.2
2023-04-04T05:09:56.453Z,68.2
2023-04-04T05:10:56.534Z,68.2
2023-04-04T05:11:56.480Z,68.3
2023-04-04T05:12:56.470Z,68.3
2023-04-04T05:13:56.500Z,68.3
2023-04-04T05:14:56.473Z,68.2
2023-04-04T05:15:56.481Z,68.3
2023-04-04T05:16:56.467Z,68.2
2023-04-04T05:17:56.486Z,68.3
2023-04-04T05:18:56.432Z,68.3
2023-04-04T05:19:56.468Z,68.4
2023-04-04T05:20:56.474Z,68.3
2023-04-04T05:21:56.446Z,68.4
2023-04-04T05:22:56.444Z,68.6
2023-04-04T05:23:56.418Z,68.5
2023-04-04T05:24:56.463Z,68.3
2023-04-04T05:25:56.544Z,68.3
2023-04-04T05:26:56.424Z,68.4
2023-04-04T05:27:56.438Z,68.4
2023-04-04T05:28:56.440Z,68.5
2023-04-04T05:29:56.569Z,68.4
2023-04-04T05:30:57.470Z,68.6
2023-04-04T05:31:56.583Z,68.4
2023-04-04T05:32:56.452Z,68.5
2023-04-04T05:33:56.422Z,68.4
2023-04-04T05:34:56.482Z,68.4
2023-04-04T05:35:56.626Z,68.5
2023-04-04T05:36:56.431Z,68.4
2023-04-04T05:37:56.398Z,68.4
2023-04-04T05:38:56.422Z,68.4
2023-04-04T05:39:56.403Z,68.4
2023-04-04T05:40:56.645Z,68.6
2023-04-04T05:41:56.444Z,68.4
2023-04-04T05:42:56.452Z,68.4
2023-04-04T05:43:56.402Z,68.5
2023-04-04T05:44:56.420Z,68.5
2023-04-04T05:45:56.409Z,68.6
2023-04-04T05:46:56.554Z,68.5
2023-04-04T05:47:56.451Z,68.6
2023-04-04T05:48:56.408Z,68.6
2023-04-04T05:49:56.415Z,68.5
2023-04-04T05:50:56.404Z,68.5
2023-04-04T05:51:56.530Z,68.5
2023-04-04T05:52:56.429Z,68.4
2023-04-04T05:53:56.383Z,68.4
2023-04-04T05:54:56.388Z,68.5
2023-04-04T05:55:56.385Z,68.4
2023-04-04T05:56:56.388Z,68.4
2023-04-04T05:57:56.390Z,68.5
2023-04-04T05:58:56.418Z,68.5
2023-04-04T05:59:56.369Z,68.4
2023-04-04T06:00:56.401Z,68.3
2023-04-04T06:01:56.378Z,68.3
2023-04-04T06:02:56.412Z,68.3
2023-04-04T06:03:56.403Z,68.3
2023-04-04T06:04:56.420Z,68.4
2023-04-04T06:05:56.397Z,68.4
2023-04-04T06:06:56.426Z,68.4
2023-04-04T06:07:56.359Z,68.5
2023-04-04T06:08:56.341Z,68.4
2023-04-04T06:09:56.424Z,68.4
2023-04-04T06:10:56.349Z,68.4
2023-04-04T06:11:56.376Z,68.4
2023-04-04T06:12:56.373Z,68.3
2023-04-04T06:13:56.517Z,68.3
2023-04-04T06:14:56.377Z,68.3
2023-04-04T06:15:56.373Z,68.3
2023-04-04T06:16:57.453Z,68.3
2023-04-04T06:17:56.389Z,68.3
2023-04-04T06:18:56.431Z,68.3
2023-04-04T06:19:56.317Z,68.2
2023-04-04T06:20:56.380Z,68.2
2023-04-04T06:21:56.365Z,68.2
2023-04-04T06:22:56.396Z,68.2
2023-04-04T06:23:56.385Z,68.1
2023-04-04T06:24:56.513Z,68.2
2023-04-04T06:25:56.360Z,68.2
2023-04-04T06:26:56.350Z,68.1
2023-04-04T06:27:56.360Z,68.1
2023-04-04T06:28:56.387Z,68.0
2023-04-04T06:29:56.339Z,68.0
2023-04-04T06:30:56.341Z,67.9
2023-04-04T06:31:56.328Z,67.9
2023-04-04T06:32:56.457Z,67.9
2023-04-04T06:33:56.311Z,67.8
2023-04-04T06:34:56.339Z,67.9
2023-04-04T06:35:56.493Z,67.9
2023-04-04T06:36:56.318Z,67.9
2023-04-04T06:37:56.303Z,67.9
2023-04-04T06:38:56.318Z,67.9
2023-04-04T06:39:56.269Z,67.8
2023-04-04T06:40:56.331Z,67.9
2023-04-04T06:41:56.323Z,67.9
2023-04-04T06:42:56.325Z,67.9
2023-04-04T06:43:56.290Z,67.9
2023-04-04T06:44:56.341Z,67.6
2023-04-04T06:45:56.295Z,67.7
2023-04-04T06:46:56.459Z,67.7
2023-04-04T06:47:56.327Z,67.5
2023-04-04T06:48:56.276Z,67.4
2023-04-04T06:49:56.281Z,67.2
2023-04-04T06:50:56.290Z,67.0
2023-04-04T06:51:56.274Z,66.9
2023-04-04T06:52:56.322Z,66.8
2023-04-04T06:53:56.272Z,66.8
2023-04-04T06:54:56.227Z,66.6
2023-04-04T06:55:56.287Z,66.8
2023-04-04T06:56:56.254Z,66.6
2023-04-04T06:57:56.357Z,67.0
2023-04-04T06:58:56.310Z,67.0
2023-04-04T06:59:56.248Z,67.1
2023-04-04T07:00:56.302Z,67.1
2023-04-04T07:01:56.304Z,67.0
2023-04-04T07:02:56.288Z,67.0
2023-04-04T07:03:56.270Z,66.9
2023-04-04T07:04:56.252Z,67.0
2023-04-04T07:05:56.286Z,67.1
2023-04-04T07:06:56.265Z,67.0
2023-04-04T07:07:56.249Z,67.0
2023-04-04T07:08:56.449Z,66.7
2023-04-04T07:09:56.251Z,66.8
2023-04-04T07:10:56.296Z,66.8
2023-04-04T07:11:56.274Z,66.8
2023-04-04T07:12:56.255Z,66.9
2023-04-04T07:13:56.278Z,67.0
2023-04-04T07:14:56.235Z,67.0
2023-04-04T07:15:56.248Z,67.0
2023-04-04T07:16:56.259Z,66.9
2023-04-04T07:17:56.266Z,66.8
2023-04-04T07:18:56.227Z,66.8
2023-04-04T07:19:56.239Z,66.6
2023-04-04T07:20:56.256Z,66.6
2023-04-04T07:21:56.276Z,66.6
2023-04-04T07:22:56.215Z,65.9
2023-04-04T07:23:56.213Z,65.8
2023-04-04T07:24:56.223Z,66.3
2023-04-04T07:25:56.235Z,65.9
2023-04-04T07:26:56.214Z,65.9
2023-04-04T07:28:06.016Z,66.1
2023-04-04T07:28:56.223Z,66.0
2023-04-04T07:29:56.357Z,66.1
2023-04-04T07:30:56.258Z,66.1
2023-04-04T07:31:56.342Z,66.1
2023-04-04T07:32:56.313Z,66.1
2023-04-04T07:33:56.218Z,66.0
2023-04-04T07:34:56.244Z,66.3
2023-04-04T07:35:56.261Z,66.4
2023-04-04T07:36:56.267Z,66.4
2023-04-04T07:37:56.172Z,66.3
2023-04-04T07:38:56.172Z,66.4
2023-04-04T07:39:56.265Z,66.5
2023-04-04T07:40:56.327Z,66.4
2023-04-04T07:41:56.243Z,66.4
2023-04-04T07:42:56.210Z,66.2
2023-04-04T07:43:56.202Z,66.2
2023-04-04T07:44:56.181Z,66.3
2023-04-04T07:45:56.280Z,65.9
2023-04-04T07:47:08.564Z,65.9
2023-04-04T07:47:56.229Z,65.3
2023-04-04T07:48:56.200Z,65.4
2023-04-04T07:49:56.159Z,65.5
2023-04-04T07:50:56.209Z,65.5
2023-04-04T07:51:56.356Z,65.7
2023-04-04T07:52:56.226Z,65.8
2023-04-04T07:53:56.170Z,64.7
2023-04-04T07:54:56.164Z,65.0
2023-04-04T07:55:56.182Z,65.3
2023-04-04T07:56:56.190Z,65.2
2023-04-04T07:57:56.188Z,65.4
2023-04-04T07:58:56.197Z,65.3
2023-04-04T07:59:56.126Z,65.0
2023-04-04T08:00:56.181Z,64.9
2023-04-04T08:01:56.153Z,63.8
2023-04-04T08:02:56.404Z,64.4
2023-04-04T08:03:56.477Z,64.7
2023-04-04T08:04:56.168Z,65.2
2023-04-04T08:05:56.312Z,65.1
2023-04-04T08:06:56.218Z,65.1
2023-04-04T08:07:56.189Z,65.4
2023-04-04T08:08:56.176Z,64.9
2023-04-04T08:09:56.148Z,65.2
2023-04-04T08:10:56.108Z,64.9
2023-04-04T08:11:56.159Z,64.7
2023-04-04T08:12:56.115Z,64.5
2023-04-04T08:13:56.435Z,64.3
2023-04-04T08:14:56.105Z,64.2
2023-04-04T08:15:56.161Z,63.8
2023-04-04T08:16:56.148Z,63.1
2023-04-04T08:17:56.272Z,63.5
2023-04-04T08:18:56.718Z,63.3
2023-04-04T08:19:56.140Z,63.7
2023-04-04T08:20:56.112Z,63.5
2023-04-04T08:21:56.173Z,63.3
2023-04-04T08:22:56.143Z,63.5
2023-04-04T08:23:56.081Z,63.5
2023-04-04T08:24:56.299Z,63.7
2023-04-04T08:25:56.158Z,64.0
2023-04-04T08:27:56.101Z,63.3
2023-04-04T08:28:56.067Z,63.2
2023-04-04T08:29:56.192Z,63.1
2023-04-04T08:30:56.304Z,62.9
2023-04-04T08:31:56.114Z,63.1
2023-04-04T08:32:56.143Z,63.3
2023-04-04T08:33:56.075Z,63.6
2023-04-04T08:34:56.108Z,63.5
2023-04-04T08:35:56.274Z,63.7
2023-04-04T08:36:56.087Z,63.6
2023-04-04T08:37:56.073Z,63.7
2023-04-04T08:38:56.103Z,63.4
2023-04-04T08:39:56.066Z,63.6
2023-04-04T08:40:56.104Z,63.7
2023-04-04T08:41:56.051Z,63.8
2023-04-04T08:42:56.126Z,63.6
2023-04-04T08:43:56.047Z,63.2
2023-04-04T08:44:56.066Z,62.6
2023-04-04T08:45:56.095Z,63.6
2023-04-04T08:46:56.246Z,63.9
2023-04-04T08:47:56.132Z,63.9
2023-04-04T08:48:56.099Z,64.1
2023-04-04T08:49:56.059Z,64.0
2023-04-04T08:50:56.084Z,63.7
2023-04-04T08:51:56.042Z,63.8
2023-04-04T08:52:56.055Z,63.8
2023-04-04T08:53:56.103Z,63.8
2023-04-04T08:54:56.061Z,63.3
2023-04-04T08:55:56.065Z,63.2
2023-04-04T08:56:56.054Z,63.3
2023-04-04T08:57:56.154Z,61.9
2023-04-04T08:58:56.157Z,62.6
2023-04-04T08:59:56.088Z,62.7
2023-04-04T09:00:56.233Z,62.8
2023-04-04T09:01:56.152Z,62.9
2023-04-04T09:02:56.209Z,63.0
2023-04-04T09:03:56.020Z,63.0
2023-04-04T09:05:05.400Z,63.0
2023-04-04T09:05:56.048Z,63.0
2023-04-04T09:06:56.143Z,63.0
2023-04-04T09:07:56.048Z,62.7
2023-04-04T09:08:56.194Z,62.2
2023-04-04T09:09:56.091Z,61.7
2023-04-04T09:10:56.161Z,62.3
2023-04-04T09:11:56.016Z,62.4
2023-04-04T09:13:02.190Z,62.5
2023-04-04T09:13:56.009Z,61.8
2023-04-04T09:14:56.060Z,62.2
2023-04-04T09:15:56.003Z,62.3
2023-04-04T09:16:56.033Z,62.2
2023-04-04T09:17:56.098Z,62.5
2023-04-04T09:18:56.115Z,62.6
2023-04-04T09:19:56.186Z,62.0
2023-04-04T09:20:56.094Z,62.0
2023-04-04T09:21:56.056Z,62.4
2023-04-04T09:23:56.000Z,62.5
2023-04-04T09:24:56.037Z,62.4
2023-04-04T09:26:03.682Z,62.5
2023-04-04T09:26:56.000Z,62.2
2023-04-04T09:27:56.029Z,62.4
2023-04-04T09:28:56.066Z,62.3
2023-04-04T09:29:56.072Z,62.3
2023-04-04T09:30:56.013Z,62.0
2023-04-04T09:31:56.022Z,60.8
2023-04-04T09:32:56.052Z,60.3
2023-04-04T09:33:56.033Z,60.3
2023-04-04T09:34:55.977Z,59.8
2023-04-04T09:35:56.094Z,61.1
2023-04-04T09:36:55.951Z,61.6
2023-04-04T09:37:55.953Z,61.6
2023-04-04T09:38:55.957Z,61.3
2023-04-04T09:39:55.983Z,61.6
2023-04-04T09:40:55.972Z,61.2
2023-04-04T09:41:56.510Z,61.2
2023-04-04T09:42:55.968Z,60.9
2023-04-04T09:43:55.975Z,61.4
2023-04-04T09:44:55.951Z,61.6
2023-04-04T09:45:55.999Z,61.7
2023-04-04T09:46:55.938Z,61.3
2023-04-04T09:47:55.973Z,61.6
2023-04-04T09:48:56.004Z,61.8
2023-04-04T09:49:55.995Z,61.0
2023-04-04T09:50:56.011Z,60.6
2023-04-04T09:51:55.961Z,60.9
2023-04-04T09:52:55.910Z,60.8
2023-04-04T09:53:55.949Z,60.2
2023-04-04T09:54:56.916Z,61.0
2023-04-04T09:55:55.982Z,61.3
2023-04-04T09:56:55.948Z,61.3
2023-04-04T09:57:55.960Z,61.3
2023-04-04T09:59:03.046Z,61.5
2023-04-04T09:59:56.125Z,61.9
2023-04-04T10:00:55.946Z,61.8
2023-04-04T10:01:56.146Z,61.9
2023-04-04T10:02:55.953Z,61.8
2023-04-04T10:03:56.129Z,60.4
2023-04-04T10:05:55.973Z,60.2
2023-04-04T10:06:55.958Z,60.2
2023-04-04T10:07:55.910Z,60.1
2023-04-04T10:08:55.918Z,59.6
2023-04-04T10:09:55.931Z,59.8
2023-04-04T10:11:06.540Z,60.3
2023-04-04T10:11:55.946Z,60.8
2023-04-04T10:12:55.958Z,60.4
2023-04-04T10:13:55.946Z,60.6
2023-04-04T10:14:56.080Z,60.8
2023-04-04T10:15:56.032Z,60.2
2023-04-04T10:16:55.917Z,58.7
2023-04-04T10:17:55.891Z,59.3
2023-04-04T10:18:55.878Z,59.7
2023-04-04T10:19:55.958Z,60.1
2023-04-04T10:21:07.998Z,58.5
2023-04-04T10:21:55.926Z,59.8
2023-04-04T10:22:55.917Z,60.2
2023-04-04T10:23:55.929Z,58.9
2023-04-04T10:24:55.938Z,59.2
2023-04-04T10:25:55.875Z,59.7
2023-04-04T10:26:55.958Z,60.2
2023-04-04T10:27:55.869Z,59.0
2023-04-04T10:28:55.875Z,59.2
2023-04-04T10:29:55.852Z,59.8
2023-04-04T10:31:05.292Z,59.2
2023-04-04T10:31:57.610Z,60.1
2023-04-04T10:32:55.962Z,60.0
2023-04-04T10:33:55.865Z,60.3
2023-04-04T10:34:55.825Z,60.0
2023-04-04T10:35:55.962Z,59.6
2023-04-04T10:36:55.958Z,59.2
2023-04-04T10:37:55.890Z,58.1
2023-04-04T10:38:55.893Z,58.8
2023-04-04T10:39:55.870Z,57.9
2023-04-04T10:40:56.064Z,58.4
2023-04-04T10:41:55.872Z,58.6
2023-04-04T10:42:55.876Z,58.5
2023-04-04T10:43:55.865Z,58.3
2023-04-04T10:44:55.835Z,58.2
2023-04-04T10:45:56.023Z,57.9
2023-04-04T10:46:56.069Z,57.9
2023-04-04T10:47:55.962Z,57.6
2023-04-04T10:48:55.847Z,57.7
2023-04-04T10:49:55.908Z,57.2
2023-04-04T10:50:55.849Z,57.7
2023-04-04T10:51:57.208Z,58.1
2023-04-04T10:52:55.926Z,58.2
2023-04-04T10:53:55.853Z,58.6
2023-04-04T10:54:55.841Z,58.0
2023-04-04T10:55:55.858Z,58.6
2023-04-04T10:56:56.093Z,58.8
2023-04-04T10:57:56.083Z,58.4
2023-04-04T10:58:58.058Z,58.1
2023-04-04T10:59:55.881Z,57.1
2023-04-04T11:00:55.844Z,58.1
2023-04-04T11:01:55.839Z,56.7
2023-04-04T11:02:56.045Z,56.9
2023-04-04T11:03:55.910Z,57.4
2023-04-04T11:04:55.835Z,57.1
2023-04-04T11:05:55.831Z,57.9
2023-04-04T11:06:55.875Z,57.9
2023-04-04T11:08:07.685Z,57.7
2023-04-04T11:08:55.788Z,58.2
2023-04-04T11:09:56.128Z,58.1
2023-04-04T11:10:55.834Z,57.6
2023-04-04T11:11:55.886Z,57.9
2023-04-04T11:13:05.681Z,57.6
2023-04-04T11:13:55.897Z,57.6
2023-04-04T11:14:55.861Z,57.4
2023-04-04T11:15:55.873Z,57.4
2023-04-04T11:16:55.957Z,57.8
2023-04-04T11:17:55.855Z,57.9
2023-04-04T11:18:55.770Z,57.1
2023-04-04T11:19:55.788Z,57.2
2023-04-04T11:20:56.245Z,55.6
2023-04-04T11:21:55.898Z,56.5
2023-04-04T11:22:55.805Z,56.8
2023-04-04T11:23:55.888Z,57.1
2023-04-04T11:24:56.814Z,57.7
2023-04-04T11:25:55.798Z,58.1
2023-04-04T11:26:55.820Z,57.5
2023-04-04T11:27:55.857Z,56.8
2023-04-04T11:28:55.901Z,57.6
2023-04-04T11:29:55.796Z,57.9
2023-04-04T11:30:55.805Z,57.4
2023-04-04T11:31:56.040Z,56.0
2023-04-04T11:33:06.048Z,56.8
2023-04-04T11:33:55.785Z,56.7
2023-04-04T11:34:55.786Z,57.3
2023-04-04T11:35:55.767Z,57.1
2023-04-04T11:36:55.791Z,56.9
2023-04-04T11:37:55.870Z,56.6
2023-04-04T11:38:55.877Z,56.4
2023-04-04T11:39:55.774Z,56.6
2023-04-04T11:40:55.748Z,56.9
2023-04-04T11:41:55.778Z,56.1
2023-04-04T11:42:55.756Z,56.9
2023-04-04T11:43:55.764Z,56.8
2023-04-04T11:44:55.759Z,56.5
2023-04-04T11:45:55.807Z,56.8
2023-04-04T11:46:55.745Z,56.6
2023-04-04T11:47:55.817Z,56.5
2023-04-04T11:48:55.718Z,56.7
2023-04-04T11:49:55.786Z,56.7
2023-04-04T11:50:55.724Z,56.1
2023-04-04T11:51:55.797Z,56.3
2023-04-04T11:52:55.749Z,56.3
2023-04-04T11:53:55.934Z,56.4
2023-04-04T11:54:55.747Z,56.2
2023-04-04T11:55:55.753Z,56.2
2023-04-04T11:56:55.816Z,56.0
2023-04-04T11:57:55.792Z,55.7
2023-04-04T11:59:08.715Z,56.7
2023-04-04T11:59:55.898Z,56.3
2023-04-04T12:00:55.721Z,56.4
2023-04-04T12:01:55.709Z,57.0
2023-04-04T12:02:55.778Z,56.8
2023-04-04T12:03:56.102Z,56.9
2023-04-04T12:04:56.043Z,57.0
2023-04-04T12:05:55.850Z,56.3
2023-04-04T12:06:55.704Z,56.8
2023-04-04T12:07:55.785Z,56.7
2023-04-04T12:08:55.729Z,56.9
2023-04-04T12:09:57.052Z,56.5
2023-04-04T12:10:55.737Z,56.0
2023-04-04T12:11:55.809Z,56.1
2023-04-04T12:12:55.744Z,55.9
2023-04-04T12:13:55.698Z,56.2
2023-04-04T12:15:06.204Z,56.0
2023-04-04T12:15:56.283Z,56.3
2023-04-04T12:16:55.792Z,56.2
2023-04-04T12:17:55.764Z,56.0
2023-04-04T12:18:55.742Z,55.9
2023-04-04T12:19:55.838Z,55.7
2023-04-04T12:20:55.708Z,56.3
2023-04-04T12:21:55.657Z,55.7
2023-04-04T12:22:55.707Z,55.9
2023-04-04T12:23:55.717Z,56.1
2023-04-04T12:24:55.761Z,56.3
2023-04-04T12:25:55.708Z,56.1
2023-04-04T12:26:55.665Z,56.2
2023-04-04T12:27:55.666Z,56.1
2023-04-04T12:28:55.683Z,56.3
2023-04-04T12:29:55.711Z,56.2
2023-04-04T12:30:55.670Z,56.3
2023-04-04T12:31:55.888Z,56.1
2023-04-04T12:32:55.753Z,55.7
2023-04-04T12:33:55.686Z,55.9
2023-04-04T12:34:55.699Z,56.2
2023-04-04T12:35:55.777Z,56.3
2023-04-04T12:36:55.649Z,56.9
2023-04-04T12:37:55.895Z,56.8
2023-04-04T12:38:55.677Z,56.0
2023-04-04T12:39:55.759Z,56.2
2023-04-04T12:40:55.711Z,56.5
2023-04-04T12:41:55.658Z,55.9
2023-04-04T12:42:55.634Z,55.5
2023-04-04T12:43:55.641Z,56.3
2023-04-04T12:44:55.641Z,56.4
2023-04-04T12:45:55.723Z,56.5
2023-04-04T12:46:55.689Z,56.3
2023-04-04T12:47:55.659Z,55.8
2023-04-04T12:48:56.195Z,56.1
2023-04-04T12:49:55.625Z,55.8
2023-04-04T12:50:55.661Z,55.7
2023-04-04T12:51:55.676Z,55.4
2023-04-04T12:53:08.379Z,55.2
2023-04-04T12:53:55.766Z,54.8
2023-04-04T12:55:55.598Z,54.5
2023-04-04T12:56:55.652Z,54.4
2023-04-04T12:57:55.661Z,55.4
2023-04-04T12:58:55.628Z,54.5
2023-04-04T12:59:55.928Z,54.7
2023-04-04T13:00:55.710Z,55.5
2023-04-04T13:01:55.635Z,55.5
2023-04-04T13:02:55.662Z,55.8
2023-04-04T13:03:55.689Z,55.3
2023-04-04T13:04:55.622Z,54.7
2023-04-04T13:05:55.750Z,54.7
2023-04-04T13:06:55.645Z,54.5
2023-04-04T13:07:55.615Z,54.6
2023-04-04T13:08:55.751Z,55.1
2023-04-04T13:09:55.625Z,54.0
2023-04-04T13:10:55.567Z,53.8
2023-04-04T13:11:55.637Z,54.8
2023-04-04T13:12:55.647Z,54.0
2023-04-04T13:13:55.615Z,54.7
2023-04-04T13:14:55.631Z,54.7
2023-04-04T13:15:55.583Z,54.3
2023-04-04T13:16:55.662Z,54.3
2023-04-04T13:17:55.652Z,53.9
2023-04-04T13:18:55.700Z,54.2
2023-04-04T13:19:55.582Z,54.6
2023-04-04T13:20:55.620Z,54.7
2023-04-04T13:21:56.068Z,54.6
2023-04-04T13:22:55.611Z,54.8